createdAt,value
2018-03-19T00:02:33.248Z,60.64
2018-03-19T00:07:33.964Z,61.02
2018-03-19T00:12:33.342Z,61.68
2018-03-19T00:17:35.299Z,61.96
2018-03-19T00:27:35.941Z,61.11
2018-03-19T00:32:35.602Z,60.83
2018-03-19T00:42:40.519Z,61.49
2018-03-19T00:47:37.220Z,61.21
2018-03-19T00:52:37.411Z,61.21
2018-03-19T00:57:37.957Z,62.06
2018-03-19T01:02:33.808Z,61.58
2018-03-19T01:07:30.271Z,62.06
2018-03-19T01:12:30.543Z,61.93
2018-03-19T01:17:31.314Z,62.53
2018-03-19T01:22:31.283Z,62.21
2018-03-19T01:27:28.122Z,62.97
2018-03-19T01:32:31.269Z,62.21
2018-03-19T01:37:33.767Z,62.02
2018-03-19T01:42:38.247Z,61.74
2018-03-19T01:47:37.987Z,62.78
2018-03-19T01:52:35.049Z,62.12
2018-03-19T01:57:34.944Z,63.16
2018-03-19T02:07:38.326Z,63.92
2018-03-19T02:12:33.037Z,63.35
2018-03-19T02:17:33.637Z,64.01
2018-03-19T02:22:33.306Z,63.82
2018-03-19T02:27:29.361Z,63.92
2018-03-19T02:37:33.804Z,64.58
2018-03-19T02:42:31.907Z,65.33
2018-03-19T02:47:32.736Z,65.05
2018-03-19T02:52:28.411Z,65.71
2018-03-19T02:57:25.562Z,64.86
2018-03-19T03:02:28.949Z,64.86
2018-03-19T03:07:24.466Z,65.42
2018-03-19T03:12:20.216Z,66.09
2018-03-19T03:17:15.802Z,65.80
2018-03-19T03:22:16.039Z,65.71
2018-03-19T03:27:19.091Z,65.90
2018-03-19T03:32:15.208Z,66.47
2018-03-19T03:37:12.720Z,66.56
2018-03-19T03:47:14.063Z,67.69
2018-03-19T03:52:15.671Z,68.07
2018-03-19T03:57:12.692Z,67.75
2018-03-19T04:02:14.420Z,68.32
2018-03-19T04:07:08.442Z,68.70
2018-03-19T04:12:08.845Z,69.07
2018-03-19T04:17:07.143Z,69.64
2018-03-19T04:22:03.577Z,68.88
2018-03-19T04:27:03.606Z,68.79
2018-03-19T04:31:57.919Z,68.23
2018-03-19T04:36:58.313Z,68.13
2018-03-19T04:41:58.171Z,67.94
2018-03-19T04:46:53.232Z,67.94
2018-03-19T04:51:49.175Z,68.51
2018-03-19T04:56:45.812Z,68.04
2018-03-19T05:01:46.096Z,68.13
2018-03-19T05:06:40.635Z,68.41
2018-03-19T05:11:36.429Z,68.51
2018-03-19T05:16:36.020Z,68.98
2018-03-19T05:21:35.435Z,68.98
2018-03-19T05:26:34.246Z,68.98
2018-03-19T05:31:34.150Z,69.73
2018-03-19T05:36:34.852Z,70.58
2018-03-19T05:41:29.564Z,70.77
2018-03-19T05:46:30.801Z,71.34
2018-03-19T05:51:27.050Z,71.06
2018-03-19T05:56:27.194Z,71.25
2018-03-19T06:01:22.418Z,70.87
2018-03-19T06:06:22.942Z,70.77
2018-03-19T06:11:23.537Z,71.06
2018-03-19T06:16:23.867Z,70.77
2018-03-19T06:21:20.447Z,69.54
2018-03-19T06:26:24.097Z,69.26
2018-03-19T06:31:19.428Z,68.79
2018-03-19T06:36:16.339Z,68.60
2018-03-19T06:41:15.624Z,68.16
2018-03-19T06:46:16.406Z,67.50
2018-03-19T06:51:12.962Z,66.28
2018-03-19T06:56:14.205Z,65.52
2018-03-19T07:01:14.227Z,64.58
2018-03-19T07:06:11.877Z,63.76
2018-03-19T07:11:08.112Z,62.62
2018-03-19T07:21:08.952Z,63.63
2018-03-19T07:26:11.293Z,62.12
2018-03-19T07:31:12.015Z,61.87
2018-03-19T07:36:06.456Z,61.40
2018-03-19T07:41:09.268Z,61.27
2018-03-19T07:51:15.269Z,59.89
2018-03-19T07:56:13.895Z,59.89
2018-03-19T08:01:12.294Z,59.22
2018-03-19T08:06:12.794Z,57.65
2018-03-19T08:11:13.490Z,57.18
2018-03-19T08:16:12.025Z,57.18
2018-03-19T08:21:11.880Z,57.05
2018-03-19T08:26:11.848Z,57.27
2018-03-19T08:31:08.807Z,56.42
2018-03-19T08:36:06.258Z,56.23
2018-03-19T08:41:05.845Z,57.08
2018-03-19T08:51:03.989Z,56.61
2018-03-19T08:56:02.892Z,57.93
2018-03-19T09:01:02.975Z,57.46
2018-03-19T09:06:00.505Z,57.18
2018-03-19T09:10:59.098Z,56.99
2018-03-19T09:15:57.134Z,58.31
2018-03-19T09:20:57.443Z,56.70
2018-03-19T09:25:53.475Z,57.18
2018-03-19T09:30:49.546Z,56.61
2018-03-19T09:35:49.669Z,56.23
2018-03-19T09:40:46.240Z,56.32
2018-03-19T09:45:42.952Z,56.54
2018-03-19T09:50:44.759Z,55.88
2018-03-19T09:55:42.076Z,55.50
2018-03-19T10:00:42.647Z,55.12
2018-03-19T10:05:40.033Z,54.93
2018-03-19T10:10:41.243Z,55.25
2018-03-19T10:15:41.210Z,55.12
2018-03-19T10:20:38.377Z,56.82
2018-03-19T10:40:40.995Z,54.30
2018-03-19T10:50:42.597Z,53.74
2018-03-19T11:05:51.354Z,51.49
2018-03-19T11:10:51.122Z,53.47
2018-03-19T11:15:47.772Z,51.77
2018-03-19T11:20:47.764Z,52.08
2018-03-19T11:30:52.402Z,49.33
2018-03-19T11:40:50.889Z,50.66
2018-03-19T11:45:48.058Z,49.55
2018-03-19T11:50:45.727Z,49.33
2018-03-19T11:55:47.878Z,49.81
2018-03-19T12:00:42.879Z,50.00
2018-03-19T12:05:42.374Z,49.62
2018-03-19T12:15:40.376Z,49.71
2018-03-19T12:20:40.016Z,49.15
2018-03-19T12:25:38.827Z,49.65
2018-03-19T12:30:38.592Z,49.62
2018-03-19T12:35:33.329Z,49.62
2018-03-19T12:40:28.848Z,48.41
2018-03-19T12:45:29.467Z,49.46
2018-03-19T12:55:34.701Z,50.19
2018-03-19T13:00:30.762Z,49.90
2018-03-19T13:05:31.678Z,49.71
2018-03-19T13:10:26.786Z,49.33
2018-03-19T13:15:27.068Z,48.39
2018-03-19T13:20:25.440Z,48.10
2018-03-19T13:25:25.554Z,47.28
2018-03-19T13:30:26.760Z,47.44
2018-03-19T13:35:23.952Z,47.37
2018-03-19T13:40:27.313Z,46.33
2018-03-19T14:00:45.524Z,44.06
2018-03-19T14:05:45.795Z,43.56
2018-03-19T14:10:46.865Z,43.39
2018-03-19T14:20:47.332Z,41.38
2018-03-19T14:35:53.943Z,40.83
2018-03-19T14:46:07.473Z,38.92
2018-03-19T14:56:09.562Z,40.25
2018-03-19T15:21:17.702Z,40.15
2018-03-19T15:46:32.241Z,38.73
2018-03-19T15:51:36.131Z,39.01
2018-03-19T15:56:36.581Z,38.82
2018-03-19T16:06:38.585Z,39.29
2018-03-19T16:11:36.367Z,38.16
2018-03-19T16:21:41.182Z,39.11
2018-03-19T16:26:42.608Z,38.07
2018-03-19T16:31:38.374Z,38.73
2018-03-19T16:36:39.854Z,38.07
2018-03-19T16:46:41.879Z,37.69
2018-03-19T16:56:45.307Z,37.21
2018-03-19T17:06:46.588Z,39.39
2018-03-19T17:11:46.419Z,39.58
2018-03-19T17:16:47.279Z,39.58
2018-03-19T17:21:45.496Z,40.22
2018-03-19T17:26:40.370Z,41.27
2018-03-19T17:31:41.119Z,41.08
2018-03-19T17:36:40.802Z,41.83
2018-03-19T17:41:37.530Z,43.44
2018-03-19T17:46:38.913Z,45.72
2018-03-19T17:51:36.866Z,44.86
2018-03-19T17:56:31.600Z,45.03
2018-03-19T18:01:27.258Z,46.26
2018-03-19T18:06:23.049Z,46.17
2018-03-19T18:11:23.055Z,47.11
2018-03-19T18:16:21.741Z,46.45
2018-03-19T18:21:20.438Z,47.11
2018-03-19T18:26:15.215Z,47.58
2018-03-19T18:31:10.878Z,47.39
2018-03-19T18:36:06.153Z,47.30
2018-03-19T18:41:05.759Z,47.49
2018-03-19T18:46:01.472Z,47.87
2018-03-19T18:51:00.803Z,47.96
2018-03-19T18:56:00.307Z,48.34
2018-03-19T19:00:59.978Z,48.34
2018-03-19T19:05:58.528Z,49.45
2018-03-19T19:10:57.168Z,50.96
2018-03-19T19:15:56.610Z,51.15
2018-03-19T19:20:52.998Z,51.15
2018-03-19T19:25:52.915Z,55.03
2018-03-19T19:30:48.219Z,53.33
2018-03-19T19:35:47.340Z,55.31
2018-03-19T19:40:46.119Z,59.47
2018-03-19T19:45:44.768Z,55.12
2018-03-19T19:50:39.384Z,56.07
2018-03-19T19:55:38.896Z,56.99
2018-03-19T20:00:33.443Z,58.59
2018-03-19T20:05:33.965Z,58.12
2018-03-19T20:10:28.801Z,58.69
2018-03-19T20:15:28.193Z,58.97
2018-03-19T20:20:26.830Z,57.74
2018-03-19T20:25:21.626Z,58.50
2018-03-19T20:30:17.876Z,59.73
2018-03-19T20:35:19.503Z,59.35
2018-03-19T20:40:18.947Z,59.92
2018-03-19T20:45:20.382Z,60.20
2018-03-19T20:55:22.166Z,61.90
2018-03-19T21:00:17.629Z,62.09
2018-03-19T21:05:17.129Z,63.79
2018-03-19T21:10:12.878Z,65.02
2018-03-19T21:15:09.296Z,65.11
2018-03-19T21:20:05.697Z,66.06
2018-03-19T21:25:06.715Z,66.63
2018-03-19T21:30:05.404Z,67.38
2018-03-19T21:35:00.103Z,68.61
2018-03-19T21:40:01.763Z,69.18
2018-03-19T21:45:02.694Z,70.12
2018-03-19T21:49:59.589Z,71.07
2018-03-19T21:54:59.616Z,71.26
2018-03-19T21:59:56.445Z,72.39
2018-03-19T22:04:55.683Z,72.96
2018-03-19T22:09:51.490Z,73.43
2018-03-19T22:14:53.718Z,74.34
2018-03-19T22:19:52.953Z,75.09
2018-03-19T22:24:52.665Z,75.85
2018-03-19T22:29:49.456Z,77.26
2018-03-19T22:34:48.295Z,77.93
2018-03-19T22:39:47.710Z,78.31
2018-03-19T22:44:42.281Z,77.08
2018-03-19T22:49:37.649Z,77.45
2018-03-19T22:54:37.665Z,77.83
2018-03-19T22:59:34.878Z,77.26
2018-03-19T23:04:31.277Z,80.38
2018-03-19T23:09:26.492Z,76.79
2018-03-19T23:14:24.405Z,77.93
2018-03-19T23:19:19.380Z,78.59
2018-03-19T23:24:18.607Z,77.93
2018-03-19T23:29:17.348Z,78.68
2018-03-19T23:34:13.251Z,80.00
2018-03-19T23:39:08.355Z,78.21
2018-03-19T23:44:06.201Z,79.44
2018-03-19T23:49:03.077Z,80.10
2018-03-19T23:54:04.106Z,81.61
2018-03-19T23:58:59.797Z,83.40
